createdAt,value
2018-09-14T00:00:37.168Z,24.03
2018-09-14T00:03:07.052Z,20.07
2018-09-14T00:05:35.429Z,20.67
2018-09-14T00:08:04.492Z,22.60
2018-09-14T00:10:32.880Z,20.23
2018-09-14T00:13:01.276Z,18.97
2018-09-14T00:15:29.652Z,24.87
2018-09-14T00:17:58.004Z,17.67
2018-09-14T00:20:26.935Z,19.90
2018-09-14T00:22:55.821Z,20.73
2018-09-14T00:25:24.245Z,22.00
2018-09-14T00:27:52.614Z,15.87
2018-09-14T00:30:21.103Z,24.30
2018-09-14T00:32:49.454Z,24.97
2018-09-14T00:35:17.893Z,24.50
2018-09-14T00:37:46.257Z,27.07
2018-09-14T00:40:14.638Z,20.10
2018-09-14T00:42:42.995Z,19.63
2018-09-14T00:45:11.366Z,23.47
2018-09-14T00:47:39.695Z,22.27
2018-09-14T00:50:08.077Z,26.23
2018-09-14T00:52:36.445Z,17.97
2018-09-14T00:55:04.841Z,22.23
2018-09-14T00:57:33.209Z,19.97
2018-09-14T01:00:02.268Z,15.87
2018-09-14T01:02:30.635Z,17.00
2018-09-14T01:04:59.033Z,18.83
2018-09-14T01:07:27.388Z,28.67
2018-09-14T01:09:55.781Z,22.17
2018-09-14T01:12:24.167Z,24.80
2018-09-14T01:14:53.544Z,29.07
2018-09-14T01:17:22.040Z,17.03
2018-09-14T01:19:50.267Z,15.77
2018-09-14T01:22:18.715Z,16.67
2018-09-14T01:24:47.085Z,17.83
2018-09-14T01:27:15.957Z,24.40
2018-09-14T01:29:44.295Z,27.03
2018-09-14T01:32:13.285Z,20.03
2018-09-14T01:34:41.651Z,24.57
2018-09-14T01:37:09.987Z,28.33
2018-09-14T01:39:38.394Z,21.40
2018-09-14T01:42:06.870Z,23.73
2018-09-14T01:44:35.783Z,29.90
2018-09-14T01:47:04.832Z,18.83
2018-09-14T01:49:33.138Z,22.57
2018-09-14T01:52:01.530Z,25.00
2018-09-14T01:54:29.875Z,34.23
2018-09-14T01:56:58.248Z,28.13
2018-09-14T01:59:26.676Z,22.53
2018-09-14T02:01:55.031Z,22.17
2018-09-14T02:04:23.485Z,26.37
2018-09-14T02:06:51.870Z,27.33
2018-09-14T02:09:20.244Z,33.93
2018-09-14T02:11:48.589Z,29.13
2018-09-14T02:14:16.931Z,36.70
2018-09-14T02:16:45.279Z,29.57
2018-09-14T02:19:13.744Z,29.40
2018-09-14T02:21:42.911Z,20.23
2018-09-14T02:24:11.241Z,24.20
2018-09-14T02:26:39.660Z,18.43
2018-09-14T02:29:07.960Z,26.50
2018-09-14T02:31:36.319Z,26.23
2018-09-14T02:34:04.711Z,16.53
2018-09-14T02:36:33.059Z,19.80
2018-09-14T02:39:01.431Z,18.80
2018-09-14T02:41:36.371Z,25.20
2018-09-14T02:44:04.913Z,19.53
2018-09-14T02:46:35.411Z,28.57
2018-09-14T02:49:03.772Z,27.70
2018-09-14T02:51:32.127Z,24.67
2018-09-14T02:54:00.495Z,26.70
2018-09-14T02:56:28.882Z,22.37
2018-09-14T02:58:57.352Z,22.37
2018-09-14T03:01:25.686Z,20.77
2018-09-14T03:03:54.616Z,22.50
2018-09-14T03:06:23.018Z,23.03
2018-09-14T03:08:51.390Z,22.23
2018-09-14T03:11:19.764Z,23.67
2018-09-14T03:13:48.105Z,24.17
2018-09-14T03:16:16.449Z,21.30
2018-09-14T03:18:44.974Z,25.07
2018-09-14T03:21:13.718Z,20.20
2018-09-14T03:23:42.494Z,21.93
2018-09-14T03:26:10.940Z,18.60
2018-09-14T03:28:39.290Z,15.60
2018-09-14T03:31:08.229Z,22.07
2018-09-14T03:33:37.205Z,16.23
2018-09-14T03:36:05.790Z,19.53
2018-09-14T03:38:34.184Z,18.83
2018-09-14T03:41:03.228Z,19.00
2018-09-14T03:43:31.616Z,17.23
2018-09-14T03:46:00.004Z,14.70
2018-09-14T03:48:28.370Z,16.27
2018-09-14T03:50:56.730Z,17.63
2018-09-14T03:53:25.802Z,17.70
2018-09-14T03:55:54.170Z,14.60
2018-09-14T03:58:22.602Z,17.10
2018-09-14T04:00:51.006Z,15.53
2018-09-14T04:03:20.168Z,17.43
2018-09-14T04:05:48.519Z,16.87
2018-09-14T04:08:16.856Z,18.57
2018-09-14T04:10:45.296Z,21.03
2018-09-14T04:13:13.740Z,17.70
2018-09-14T04:15:42.090Z,20.20
2018-09-14T04:18:10.435Z,16.67
2018-09-14T04:20:39.364Z,20.17
2018-09-14T04:23:07.742Z,17.40
2018-09-14T04:25:36.086Z,17.27
2018-09-14T04:28:05.249Z,17.77
2018-09-14T04:30:33.590Z,13.73
2018-09-14T04:33:01.968Z,16.53
2018-09-14T04:35:30.302Z,20.27
2018-09-14T04:37:58.702Z,14.23
2018-09-14T04:40:27.174Z,19.73
2018-09-14T04:42:55.518Z,14.60
2018-09-14T04:45:23.894Z,14.20
2018-09-14T04:47:52.247Z,17.33
2018-09-14T04:50:20.720Z,15.63
2018-09-14T04:52:49.128Z,15.07
2018-09-14T04:55:17.559Z,19.20
2018-09-14T04:57:45.892Z,18.53
2018-09-14T05:00:14.243Z,17.80
2018-09-14T05:02:42.582Z,15.43
2018-09-14T05:05:10.937Z,19.23
2018-09-14T05:07:39.435Z,15.00
2018-09-14T05:10:07.800Z,17.27
2018-09-14T05:12:36.134Z,14.93
2018-09-14T05:15:04.627Z,17.37
2018-09-14T05:17:33.068Z,22.97
2018-09-14T05:20:01.377Z,26.03
2018-09-14T05:22:29.718Z,20.33
2018-09-14T05:24:58.088Z,20.87
2018-09-14T05:27:26.420Z,15.80
2018-09-14T05:29:54.802Z,19.63
2018-09-14T05:32:23.184Z,18.43
2018-09-14T05:34:51.516Z,23.70
2018-09-14T05:37:19.912Z,23.80
2018-09-14T05:39:48.292Z,24.07
2018-09-14T05:42:17.344Z,21.07
2018-09-14T05:44:45.723Z,20.57
2018-09-14T05:47:14.170Z,19.57
2018-09-14T05:49:42.547Z,19.33
2018-09-14T05:52:10.917Z,19.63
2018-09-14T05:54:39.300Z,19.27
2018-09-14T05:57:07.680Z,21.90
2018-09-14T05:59:36.156Z,21.33
2018-09-14T06:02:05.402Z,19.27
2018-09-14T06:04:33.764Z,14.00
2018-09-14T06:07:02.335Z,24.77
2018-09-14T06:09:30.722Z,24.47
2018-09-14T06:11:59.206Z,24.80
2018-09-14T06:14:27.573Z,25.63
2018-09-14T06:16:55.975Z,19.97
2018-09-14T06:19:25.036Z,17.60
2018-09-14T06:21:53.414Z,12.60
2018-09-14T06:24:24.668Z,16.70
2018-09-14T06:26:53.682Z,32.67
2018-09-14T06:29:22.060Z,15.50
2018-09-14T06:31:51.095Z,20.00
2018-09-14T06:34:19.463Z,20.83
2018-09-14T06:36:48.062Z,16.17
2018-09-14T06:39:16.876Z,15.03
2018-09-14T06:41:45.252Z,12.90
2018-09-14T06:44:13.642Z,12.13
2018-09-14T06:46:42.020Z,17.00
2018-09-14T06:49:10.403Z,17.00
2018-09-14T06:51:39.446Z,15.57
2018-09-14T06:54:08.362Z,12.90
2018-09-14T06:56:36.759Z,17.30
2018-09-14T06:59:05.306Z,19.20
2018-09-14T07:01:33.836Z,13.00
2018-09-14T07:04:02.211Z,15.43
2018-09-14T07:06:30.668Z,14.60
2018-09-14T07:08:59.553Z,15.03
2018-09-14T07:11:27.916Z,15.03
2018-09-14T07:13:56.284Z,15.60
2018-09-14T07:16:24.664Z,13.30
2018-09-14T07:18:53.048Z,13.87
2018-09-14T07:21:21.463Z,11.70
2018-09-14T07:23:49.793Z,11.70
2018-09-14T07:26:18.275Z,15.50
2018-09-14T07:28:46.794Z,14.63
2018-09-14T07:31:15.100Z,14.20
2018-09-14T07:33:43.649Z,16.57
2018-09-14T07:36:12.393Z,14.07
2018-09-14T07:38:41.449Z,13.97
2018-09-14T07:41:09.889Z,13.13
2018-09-14T07:43:38.279Z,15.03
2018-09-14T07:46:06.651Z,13.67
2018-09-14T07:48:35.019Z,14.07
2018-09-14T07:51:03.467Z,14.60
2018-09-14T07:53:31.922Z,14.63
2018-09-14T07:56:00.373Z,16.03
2018-09-14T07:58:28.747Z,13.53
2018-09-14T08:00:57.131Z,14.83
2018-09-14T08:03:25.515Z,16.53
2018-09-14T08:05:53.955Z,15.10
2018-09-14T08:08:22.304Z,12.77
2018-09-14T08:10:51.225Z,13.63
2018-09-14T08:13:19.652Z,17.00
2018-09-14T08:15:48.061Z,12.17
2018-09-14T08:18:16.448Z,12.87
2018-09-14T08:20:44.817Z,13.67
2018-09-14T08:23:13.172Z,14.57
2018-09-14T08:25:41.506Z,15.70
2018-09-14T08:28:09.887Z,12.23
2018-09-14T08:30:38.672Z,10.93
2018-09-14T08:33:07.019Z,11.87
2018-09-14T08:35:36.001Z,14.17
2018-09-14T08:38:10.869Z,11.93
2018-09-14T08:40:39.297Z,11.27
2018-09-14T08:43:07.704Z,11.77
2018-09-14T08:45:36.106Z,13.00
2018-09-14T08:48:04.606Z,11.43
2018-09-14T08:50:32.872Z,12.30
2018-09-14T08:53:01.273Z,10.37
2018-09-14T08:55:29.643Z,9.60
2018-09-14T08:57:58.012Z,10.03
2018-09-14T09:00:27.170Z,10.40
2018-09-14T09:02:56.401Z,9.60
2018-09-14T09:05:25.343Z,11.40
2018-09-14T09:07:53.875Z,12.10
2018-09-14T09:10:22.283Z,11.40
2018-09-14T09:12:50.679Z,12.20
2018-09-14T09:15:19.182Z,10.03
2018-09-14T09:17:47.680Z,11.70
2018-09-14T09:20:15.944Z,11.53
2018-09-14T09:22:44.378Z,11.90
2018-09-14T09:25:12.766Z,10.07
2018-09-14T09:27:41.117Z,10.23
2018-09-14T09:30:10.105Z,11.33
2018-09-14T09:32:38.497Z,9.97
2018-09-14T09:35:06.880Z,11.87
2018-09-14T09:37:35.714Z,10.60
2018-09-14T09:40:04.225Z,8.70
2018-09-14T09:42:32.993Z,9.20
2018-09-14T09:45:01.384Z,8.47
2018-09-14T09:47:29.715Z,9.47
2018-09-14T09:49:58.652Z,10.03
2018-09-14T09:52:27.021Z,9.53
2018-09-14T09:54:55.339Z,10.50
2018-09-14T09:57:23.686Z,9.77
2018-09-14T09:59:52.763Z,8.90
2018-09-14T10:02:26.388Z,7.80
2018-09-14T10:05:00.148Z,8.23
2018-09-14T10:07:29.220Z,8.47
2018-09-14T10:09:57.652Z,8.40
2018-09-14T10:12:26.017Z,7.67
2018-09-14T10:14:54.403Z,7.83
2018-09-14T10:17:22.738Z,7.40
2018-09-14T10:19:51.112Z,6.73
2018-09-14T10:22:19.474Z,7.40
2018-09-14T10:24:47.823Z,5.83
2018-09-14T10:27:16.297Z,6.30
2018-09-14T10:29:44.692Z,7.67
2018-09-14T10:32:13.067Z,5.57
2018-09-14T10:34:41.453Z,7.67
2018-09-14T10:37:09.911Z,7.70
2018-09-14T10:39:38.191Z,7.70
2018-09-14T10:42:06.653Z,8.00
2018-09-14T10:44:35.023Z,8.93
2018-09-14T10:47:03.380Z,7.30
2018-09-14T10:49:31.739Z,7.27
2018-09-14T10:52:00.077Z,6.97
2018-09-14T10:54:28.428Z,7.17
2018-09-14T10:56:57.298Z,5.93
2018-09-14T10:59:25.691Z,5.07
2018-09-14T11:01:54.013Z,7.67
2018-09-14T11:04:23.123Z,6.17
2018-09-14T11:06:51.466Z,6.13
2018-09-14T11:09:19.824Z,6.63
2018-09-14T11:11:48.215Z,5.83
2018-09-14T11:14:16.585Z,6.03
2018-09-14T11:16:44.975Z,6.40
2018-09-14T11:19:13.357Z,5.40
2018-09-14T11:21:42.391Z,5.27
2018-09-14T11:24:10.837Z,3.77
2018-09-14T11:26:40.511Z,4.27
2018-09-14T11:29:09.625Z,3.80
2018-09-14T11:31:38.571Z,3.70
2018-09-14T11:34:06.982Z,3.43
2018-09-14T11:36:35.311Z,3.13
2018-09-14T11:39:03.936Z,3.60
2018-09-14T11:41:32.356Z,3.10
2018-09-14T11:44:00.713Z,3.30
2018-09-14T11:46:29.106Z,3.67
2018-09-14T11:48:57.442Z,3.53
2018-09-14T11:51:25.814Z,3.60
2018-09-14T11:53:54.683Z,2.90
2018-09-14T11:56:23.186Z,4.87
2018-09-14T11:58:51.576Z,2.97
2018-09-14T12:01:20.028Z,9.20
2018-09-14T12:03:48.339Z,5.27
2018-09-14T12:06:16.800Z,3.40
2018-09-14T12:08:45.237Z,4.40
2018-09-14T12:11:13.717Z,2.60
2018-09-14T12:13:42.842Z,8.57
2018-09-14T12:16:11.171Z,3.57
2018-09-14T12:18:39.559Z,3.57
2018-09-14T12:21:07.973Z,49.87
2018-09-14T12:23:36.339Z,65.73
2018-09-14T12:26:04.751Z,3.30
2018-09-14T12:28:33.104Z,3.70
2018-09-14T12:31:01.461Z,2.50
2018-09-14T12:33:29.847Z,5.43
2018-09-14T12:35:58.316Z,3.50
2018-09-14T12:38:26.707Z,3.37
2018-09-14T12:40:55.212Z,3.07
2018-09-14T12:43:23.538Z,2.90
2018-09-14T12:45:51.911Z,2.53
2018-09-14T12:48:20.281Z,2.80
2018-09-14T12:50:49.517Z,2.10
2018-09-14T12:53:17.889Z,2.27
2018-09-14T12:55:46.263Z,2.77
2018-09-14T12:58:14.626Z,2.73
2018-09-14T13:00:43.045Z,3.10
2018-09-14T13:03:11.409Z,3.23
2018-09-14T13:05:39.795Z,3.40
2018-09-14T13:08:08.169Z,4.70
2018-09-14T13:10:36.589Z,3.07
2018-09-14T13:13:05.485Z,2.77
2018-09-14T13:15:33.865Z,3.00
2018-09-14T13:18:02.229Z,2.57
2018-09-14T13:20:31.262Z,2.00
2018-09-14T13:22:59.601Z,3.67
2018-09-14T13:25:27.971Z,2.50
2018-09-14T13:27:56.379Z,2.80
2018-09-14T13:30:24.749Z,4.13
2018-09-14T13:32:53.896Z,2.57
2018-09-14T13:35:29.050Z,3.07
2018-09-14T13:37:58.291Z,2.97
2018-09-14T13:40:26.631Z,3.30
2018-09-14T13:42:55.077Z,3.47
2018-09-14T13:45:23.451Z,2.53
2018-09-14T13:47:51.796Z,2.97
2018-09-14T13:50:20.136Z,3.10
2018-09-14T13:52:48.509Z,2.80
2018-09-14T13:55:16.815Z,2.70
2018-09-14T13:57:45.176Z,2.83
2018-09-14T14:00:13.775Z,2.90
2018-09-14T14:02:42.153Z,2.80
2018-09-14T14:05:10.501Z,3.30
2018-09-14T14:07:38.870Z,2.60
2018-09-14T14:10:07.234Z,2.60
2018-09-14T14:12:35.596Z,3.10
2018-09-14T14:15:04.087Z,3.43
2018-09-14T14:17:32.543Z,3.03
2018-09-14T14:20:00.830Z,2.83
2018-09-14T14:22:29.220Z,2.47
2018-09-14T14:24:57.563Z,2.40
2018-09-14T14:27:25.973Z,2.70
2018-09-14T14:29:54.439Z,1.80
2018-09-14T14:32:22.922Z,3.67
2018-09-14T14:34:51.371Z,3.43
2018-09-14T14:37:19.805Z,3.73
2018-09-14T14:39:48.115Z,2.43
2018-09-14T14:42:16.475Z,2.13
2018-09-14T14:44:45.028Z,2.20
2018-09-14T14:47:13.425Z,1.90
2018-09-14T14:49:41.804Z,2.93
2018-09-14T14:52:10.239Z,2.43
2018-09-14T14:54:38.623Z,2.20
2018-09-14T14:57:07.056Z,2.50
2018-09-14T14:59:35.662Z,2.40
2018-09-14T15:02:03.960Z,2.50
2018-09-14T15:04:32.332Z,2.60
2018-09-14T15:07:00.724Z,6.03
2018-09-14T15:09:29.165Z,2.70
2018-09-14T15:11:57.630Z,2.90
2018-09-14T15:14:26.084Z,2.07
2018-09-14T15:16:54.570Z,2.23
2018-09-14T15:19:23.098Z,4.37
2018-09-14T15:21:51.616Z,4.10
2018-09-14T15:24:20.002Z,2.63
2018-09-14T15:26:48.408Z,2.13
2018-09-14T15:29:16.811Z,5.47
2018-09-14T15:31:45.215Z,2.77
2018-09-14T15:34:13.602Z,2.57
2018-09-14T15:36:42.004Z,2.53
2018-09-14T15:39:11.767Z,2.53
2018-09-14T15:41:40.181Z,3.50
2018-09-14T15:44:08.581Z,3.50
2018-09-14T15:46:37.008Z,28.23
2018-09-14T15:49:05.421Z,6.27
2018-09-14T15:51:34.542Z,2.80
2018-09-14T15:54:02.961Z,3.10
2018-09-14T15:56:31.377Z,2.70
2018-09-14T15:58:59.754Z,2.47
2018-09-14T16:01:28.124Z,2.57
2018-09-14T16:03:56.484Z,2.90
2018-09-14T16:06:24.855Z,3.97
2018-09-14T16:08:53.254Z,5.60
2018-09-14T16:11:21.604Z,3.77
2018-09-14T16:13:50.054Z,2.37
2018-09-14T16:16:18.463Z,2.43
2018-09-14T16:18:46.944Z,3.17
2018-09-14T16:21:15.430Z,3.87
2018-09-14T16:23:43.804Z,3.00
2018-09-14T16:26:12.189Z,3.23
2018-09-14T16:28:40.536Z,2.90
2018-09-14T16:31:08.914Z,6.60
2018-09-14T16:33:37.330Z,3.60
2018-09-14T16:36:05.682Z,4.27
2018-09-14T16:38:34.505Z,5.03
2018-09-14T16:41:02.881Z,4.13
2018-09-14T16:43:31.330Z,3.43
2018-09-14T16:45:59.647Z,3.87
2018-09-14T16:48:28.040Z,3.63
2018-09-14T16:50:56.385Z,5.27
2018-09-14T16:53:24.828Z,3.07
2018-09-14T16:55:53.202Z,3.10
2018-09-14T16:58:21.606Z,5.07
2018-09-14T17:00:50.022Z,3.43
2018-09-14T17:03:18.336Z,4.00
2018-09-14T17:05:46.747Z,3.83
2018-09-14T17:08:15.090Z,4.17
2018-09-14T17:10:43.527Z,3.70
2018-09-14T17:13:11.869Z,4.20
2018-09-14T17:15:40.236Z,5.40
2018-09-14T17:18:08.603Z,4.63
2018-09-14T17:20:37.556Z,2.50
2018-09-14T17:23:05.918Z,3.70
2018-09-14T17:25:34.767Z,4.17
2018-09-14T17:28:03.808Z,3.90
2018-09-14T17:30:32.307Z,6.37
2018-09-14T17:33:00.728Z,3.50
2018-09-14T17:35:29.137Z,3.90
2018-09-14T17:37:57.454Z,3.73
2018-09-14T17:40:25.815Z,3.93
2018-09-14T17:42:54.188Z,3.47
2018-09-14T17:45:22.628Z,3.77
2018-09-14T17:47:50.972Z,3.53
2018-09-14T17:50:19.339Z,2.50
2018-09-14T17:52:47.696Z,4.23
2018-09-14T17:55:16.075Z,2.73
2018-09-14T17:57:44.418Z,3.07
2018-09-14T18:00:13.055Z,3.20
2018-09-14T18:02:41.455Z,2.97
2018-09-14T18:05:09.810Z,1.90
2018-09-14T18:07:38.195Z,2.97
2018-09-14T18:10:06.916Z,2.87
2018-09-14T18:12:35.435Z,2.70
2018-09-14T18:15:04.051Z,4.93
2018-09-14T18:17:32.412Z,2.67
2018-09-14T18:20:00.799Z,2.20
2018-09-14T18:22:29.168Z,2.63
2018-09-14T18:24:57.538Z,1.70
2018-09-14T18:27:25.905Z,2.03
2018-09-14T18:29:54.223Z,2.50
2018-09-14T18:32:22.595Z,3.87
2018-09-14T18:34:52.168Z,5.23
2018-09-14T18:37:20.573Z,2.17
2018-09-14T18:39:49.191Z,2.87
2018-09-14T18:42:17.806Z,1.97
2018-09-14T18:44:46.262Z,2.00
2018-09-14T18:47:14.927Z,5.43
2018-09-14T18:49:43.618Z,2.83
2018-09-14T18:52:12.317Z,1.93
2018-09-14T18:54:40.756Z,2.77
2018-09-14T18:57:09.381Z,2.57
2018-09-14T18:59:38.118Z,2.07
2018-09-14T19:02:06.993Z,1.93
2018-09-14T19:04:35.659Z,1.87
2018-09-14T19:07:04.350Z,2.93
2018-09-14T19:09:33.076Z,3.63
2018-09-14T19:12:01.499Z,3.40
2018-09-14T19:14:34.401Z,2.77
2018-09-14T19:17:03.095Z,2.67
2018-09-14T19:19:32.044Z,2.43
2018-09-14T19:22:00.749Z,2.67
2018-09-14T19:24:29.477Z,3.00
2018-09-14T19:26:58.576Z,3.17
2018-09-14T19:29:27.148Z,2.83
2018-09-14T19:31:55.871Z,2.57
2018-09-14T19:34:24.553Z,3.07
2018-09-14T19:36:53.029Z,3.07
2018-09-14T19:39:21.542Z,3.10
2018-09-14T19:41:50.291Z,2.47
2018-09-14T19:44:18.973Z,2.90
2018-09-14T19:46:47.366Z,3.10
2018-09-14T19:49:18.960Z,2.73
2018-09-14T19:51:47.423Z,2.80
2018-09-14T19:54:16.118Z,3.17
2018-09-14T19:56:44.730Z,3.10
2018-09-14T19:59:13.225Z,3.07
2018-09-14T20:01:41.759Z,2.83
2018-09-14T20:04:10.314Z,2.50
2018-09-14T20:06:39.289Z,3.97
2018-09-14T20:09:10.536Z,4.30
2018-09-14T20:11:39.224Z,3.90
2018-09-14T20:14:07.636Z,4.07
2018-09-14T20:16:37.050Z,3.57
2018-09-14T20:19:05.642Z,3.90
2018-09-14T20:21:34.080Z,3.77
2018-09-14T20:24:02.444Z,3.90
2018-09-14T20:26:30.832Z,3.13
2018-09-14T20:28:59.242Z,2.43
2018-09-14T20:31:27.627Z,3.27
2018-09-14T20:33:55.998Z,2.77
2018-09-14T20:36:24.456Z,4.03
2018-09-14T20:38:52.833Z,4.37
2018-09-14T20:41:21.346Z,3.70
2018-09-14T20:43:49.723Z,4.80
2018-09-14T20:46:18.124Z,4.43
2018-09-14T20:48:46.468Z,3.60
2018-09-14T20:51:14.858Z,4.67
2018-09-14T20:53:43.223Z,3.97
2018-09-14T20:56:11.636Z,4.23
2018-09-14T20:58:40.019Z,3.57
2018-09-14T21:01:08.425Z,3.20
2018-09-14T21:03:36.769Z,4.43
2018-09-14T21:06:05.122Z,3.97
2018-09-14T21:08:33.503Z,4.60
2018-09-14T21:11:01.920Z,4.57
2018-09-14T21:13:30.328Z,5.53
2018-09-14T21:15:58.684Z,4.33
2018-09-14T21:18:27.038Z,4.10
2018-09-14T21:20:55.384Z,4.10
2018-09-14T21:23:23.766Z,6.40
2018-09-14T21:25:52.749Z,5.90
2018-09-14T21:28:21.236Z,3.83
2018-09-14T21:30:49.677Z,4.50
2018-09-14T21:33:18.054Z,6.50
2018-09-14T21:35:46.764Z,4.70
2018-09-14T21:38:15.116Z,3.00
2018-09-14T21:40:43.488Z,2.97
2018-09-14T21:43:12.024Z,3.00
2018-09-14T21:45:40.431Z,2.53
2018-09-14T21:48:08.915Z,2.93
2018-09-14T21:50:37.344Z,3.57
2018-09-14T21:53:05.905Z,4.03
2018-09-14T21:55:34.263Z,3.07
2018-09-14T21:58:02.747Z,3.97
2018-09-14T22:00:36.518Z,3.37
2018-09-14T22:03:04.863Z,3.80
2018-09-14T22:05:33.210Z,4.50
2018-09-14T22:08:01.722Z,3.97
2018-09-14T22:10:30.084Z,6.30
2018-09-14T22:12:58.443Z,4.17
2018-09-14T22:15:26.787Z,4.43
2018-09-14T22:17:55.141Z,4.93
2018-09-14T22:20:23.508Z,5.73
2018-09-14T22:22:51.848Z,4.37
2018-09-14T22:25:20.284Z,4.63
2018-09-14T22:27:48.655Z,5.93
2018-09-14T22:30:17.054Z,4.33
2018-09-14T22:32:45.389Z,5.00
2018-09-14T22:35:13.759Z,4.87
2018-09-14T22:37:42.644Z,3.63
2018-09-14T22:40:11.048Z,2.43
2018-09-14T22:42:39.459Z,4.47
2018-09-14T22:45:07.842Z,3.53
2018-09-14T22:47:36.202Z,4.07
2018-09-14T22:50:04.564Z,5.30
2018-09-14T22:52:32.997Z,4.53
2018-09-14T22:55:01.490Z,5.33
2018-09-14T22:57:29.869Z,5.47
2018-09-14T23:00:01.692Z,6.10
2018-09-14T23:02:30.059Z,7.07
2018-09-14T23:04:58.415Z,5.23
2018-09-14T23:07:26.755Z,4.73
2018-09-14T23:09:55.090Z,5.17
2018-09-14T23:12:23.425Z,6.30
2018-09-14T23:14:51.763Z,9.13
2018-09-14T23:17:20.250Z,4.63
2018-09-14T23:19:48.603Z,5.30
2018-09-14T23:22:17.659Z,4.77
2018-09-14T23:24:45.980Z,3.87
2018-09-14T23:27:14.392Z,3.60
2018-09-14T23:29:42.712Z,3.60
2018-09-14T23:32:11.078Z,4.30
2018-09-14T23:34:39.392Z,7.73
2018-09-14T23:37:07.828Z,4.60
2018-09-14T23:39:36.210Z,3.47
2018-09-14T23:42:05.820Z,3.67
2018-09-14T23:44:34.202Z,4.33
2018-09-14T23:47:02.544Z,4.63
2018-09-14T23:49:30.958Z,4.13
2018-09-14T23:51:59.932Z,4.47
2018-09-14T23:54:28.275Z,4.93
2018-09-14T23:56:57.320Z,4.23
2018-09-14T23:59:25.652Z,3.73
